sensor_id;sensor_type;location;lat;lon;timestamp;P1;durP1;ratioP1;P2;durP2;ratioP2
9972;SDS011;5027;53.560;10.062;2022-09-09T00:01:52;28.30;;;25.50;;
9972;SDS011;5027;53.560;10.062;2022-09-09T00:04:28;29.33;;;26.37;;
9972;SDS011;5027;53.560;10.062;2022-09-09T00:06:59;29.03;;;26.23;;
9972;SDS011;5027;53.560;10.062;2022-09-09T00:09:39;30.67;;;27.77;;
9972;SDS011;5027;53.560;10.062;2022-09-09T00:14:47;27.10;;;24.50;;
9972;SDS011;5027;53.560;10.062;2022-09-09T00:20:28;27.47;;;24.57;;
9972;SDS011;5027;53.560;10.062;2022-09-09T00:23:01;26.70;;;24.20;;
9972;SDS011;5027;53.560;10.062;2022-09-09T00:28:22;26.73;;;24.23;;
9972;SDS011;5027;53.560;10.062;2022-09-09T00:30:51;27.97;;;25.37;;
9972;SDS011;5027;53.560;10.062;2022-09-09T00:33:22;24.73;;;22.43;;
9972;SDS011;5027;53.560;10.062;2022-09-09T00:35:51;26.00;;;23.60;;
9972;SDS011;5027;53.560;10.062;2022-09-09T00:44:32;22.80;;;20.47;;
9972;SDS011;5027;53.560;10.062;2022-09-09T00:55:16;20.80;;;19.00;;
9972;SDS011;5027;53.560;10.062;2022-09-09T00:57:48;19.80;;;18.00;;
9972;SDS011;5027;53.560;10.062;2022-09-09T01:00:19;20.13;;;18.27;;
9972;SDS011;5027;53.560;10.062;2022-09-09T01:11:05;19.50;;;17.80;;
9972;SDS011;5027;53.560;10.062;2022-09-09T01:13:37;18.33;;;16.73;;
9972;SDS011;5027;53.560;10.062;2022-09-09T01:16:08;17.87;;;16.37;;
9972;SDS011;5027;53.560;10.062;2022-09-09T01:18:44;18.87;;;17.27;;
9972;SDS011;5027;53.560;10.062;2022-09-09T01:21:25;19.50;;;17.80;;
9972;SDS011;5027;53.560;10.062;2022-09-09T01:27:04;19.63;;;17.73;;
9972;SDS011;5027;53.560;10.062;2022-09-09T01:29:32;17.33;;;15.93;;
9972;SDS011;5027;53.560;10.062;2022-09-09T01:32:01;19.20;;;17.27;;
9972;SDS011;5027;53.560;10.062;2022-09-09T01:34:48;18.33;;;16.73;;
9972;SDS011;5027;53.560;10.062;2022-09-09T01:37:17;18.60;;;16.70;;
9972;SDS011;5027;53.560;10.062;2022-09-09T01:39:44;18.87;;;17.27;;
9972;SDS011;5027;53.560;10.062;2022-09-09T01:42:15;16.97;;;15.57;;
9972;SDS011;5027;53.560;10.062;2022-09-09T01:44:43;18.00;;;16.50;;
9972;SDS011;5027;53.560;10.062;2022-09-09T01:47:11;18.27;;;16.63;;
9972;SDS011;5027;53.560;10.062;2022-09-09T01:49:56;19.70;;;17.90;;
9972;SDS011;5027;53.560;10.062;2022-09-09T01:52:25;19.43;;;17.73;;
9972;SDS011;5027;53.560;10.062;2022-09-09T01:54:53;19.17;;;17.47;;
9972;SDS011;5027;53.560;10.062;2022-09-09T01:57:27;20.27;;;18.13;;
9972;SDS011;5027;53.560;10.062;2022-09-09T02:00:07;21.03;;;19.13;;
9972;SDS011;5027;53.560;10.062;2022-09-09T02:08:47;20.87;;;18.97;;
9972;SDS011;5027;53.560;10.062;2022-09-09T02:11:19;20.93;;;18.83;;
9972;SDS011;5027;53.560;10.062;2022-09-09T02:14:12;19.30;;;17.50;;
9972;SDS011;5027;53.560;10.062;2022-09-09T02:16:49;18.83;;;17.20;;
9972;SDS011;5027;53.560;10.062;2022-09-09T02:19:27;19.53;;;17.83;;
9972;SDS011;5027;53.560;10.062;2022-09-09T02:22:05;21.07;;;19.23;;
9972;SDS011;5027;53.560;10.062;2022-09-09T02:24:34;19.37;;;17.67;;
9972;SDS011;5027;53.560;10.062;2022-09-09T02:27:14;19.20;;;17.50;;
9972;SDS011;5027;53.560;10.062;2022-09-09T02:29:43;21.87;;;16.63;;
9972;SDS011;5027;53.560;10.062;2022-09-09T02:32:18;19.53;;;16.77;;
9972;SDS011;5027;53.560;10.062;2022-09-09T02:34:52;18.33;;;16.57;;
9972;SDS011;5027;53.560;10.062;2022-09-09T02:37:35;18.43;;;16.80;;
9972;SDS011;5027;53.560;10.062;2022-09-09T02:40:05;18.30;;;16.60;;
9972;SDS011;5027;53.560;10.062;2022-09-09T02:42:40;17.80;;;16.27;;
9972;SDS011;5027;53.560;10.062;2022-09-09T02:45:13;16.53;;;15.07;;
9972;SDS011;5027;53.560;10.062;2022-09-09T02:50:35;15.77;;;14.50;;
9972;SDS011;5027;53.560;10.062;2022-09-09T02:53:17;17.57;;;15.97;;
9972;SDS011;5027;53.560;10.062;2022-09-09T02:55:48;16.27;;;14.77;;
9972;SDS011;5027;53.560;10.062;2022-09-09T02:58:22;16.33;;;14.73;;
9972;SDS011;5027;53.560;10.062;2022-09-09T03:00:57;16.13;;;14.73;;
9972;SDS011;5027;53.560;10.062;2022-09-09T03:03:25;17.03;;;15.33;;
9972;SDS011;5027;53.560;10.062;2022-09-09T03:05:52;15.20;;;13.90;;
9972;SDS011;5027;53.560;10.062;2022-09-09T03:08:18;17.17;;;14.83;;
9972;SDS011;5027;53.560;10.062;2022-09-09T03:10:46;15.07;;;13.73;;
9972;SDS011;5027;53.560;10.062;2022-09-09T03:13:14;14.27;;;13.07;;
9972;SDS011;5027;53.560;10.062;2022-09-09T03:15:42;13.77;;;12.37;;
9972;SDS011;5027;53.560;10.062;2022-09-09T03:18:14;14.87;;;13.60;;
9972;SDS011;5027;53.560;10.062;2022-09-09T03:20:41;14.97;;;13.43;;
9972;SDS011;5027;53.560;10.062;2022-09-09T03:23:09;14.40;;;13.07;;
9972;SDS011;5027;53.560;10.062;2022-09-09T03:25:51;14.70;;;13.40;;
9972;SDS011;5027;53.560;10.062;2022-09-09T03:28:24;13.90;;;12.63;;
9972;SDS011;5027;53.560;10.062;2022-09-09T03:30:59;14.57;;;13.27;;
9972;SDS011;5027;53.560;10.062;2022-09-09T03:33:29;14.87;;;13.43;;
9972;SDS011;5027;53.560;10.062;2022-09-09T03:35:57;14.73;;;13.50;;
9972;SDS011;5027;53.560;10.062;2022-09-09T03:38:24;13.00;;;12.00;;
9972;SDS011;5027;53.560;10.062;2022-09-09T03:40:51;14.47;;;13.27;;
9972;SDS011;5027;53.560;10.062;2022-09-09T03:43:23;13.40;;;12.37;;
9972;SDS011;5027;53.560;10.062;2022-09-09T03:45:52;14.00;;;12.90;;
9972;SDS011;5027;53.560;10.062;2022-09-09T03:48:19;14.97;;;13.77;;
9972;SDS011;5027;53.560;10.062;2022-09-09T03:50:46;14.80;;;13.53;;
9972;SDS011;5027;53.560;10.062;2022-09-09T03:53:14;15.23;;;13.73;;
9972;SDS011;5027;53.560;10.062;2022-09-09T03:55:43;17.23;;;15.77;;
9972;SDS011;5027;53.560;10.062;2022-09-09T03:58:14;14.60;;;13.17;;
9972;SDS011;5027;53.560;10.062;2022-09-09T04:00:55;14.50;;;13.30;;
9972;SDS011;5027;53.560;10.062;2022-09-09T04:03:26;14.63;;;13.23;;
9972;SDS011;5027;53.560;10.062;2022-09-09T04:05:55;17.93;;;16.00;;
9972;SDS011;5027;53.560;10.062;2022-09-09T04:08:25;15.03;;;13.47;;
9972;SDS011;5027;53.560;10.062;2022-09-09T04:10:52;15.30;;;13.77;;
9972;SDS011;5027;53.560;10.062;2022-09-09T04:13:25;15.90;;;14.27;;
9972;SDS011;5027;53.560;10.062;2022-09-09T04:15:56;16.63;;;15.00;;
9972;SDS011;5027;53.560;10.062;2022-09-09T04:18:24;15.37;;;13.80;;
9972;SDS011;5027;53.560;10.062;2022-09-09T04:20:52;14.53;;;13.27;;
9972;SDS011;5027;53.560;10.062;2022-09-09T04:23:22;13.70;;;12.40;;
9972;SDS011;5027;53.560;10.062;2022-09-09T04:25:51;14.57;;;13.20;;
9972;SDS011;5027;53.560;10.062;2022-09-09T04:28:21;13.63;;;12.43;;
9972;SDS011;5027;53.560;10.062;2022-09-09T04:30:49;13.97;;;12.77;;
9972;SDS011;5027;53.560;10.062;2022-09-09T04:33:16;14.03;;;12.77;;
9972;SDS011;5027;53.560;10.062;2022-09-09T04:35:48;14.77;;;13.37;;
9972;SDS011;5027;53.560;10.062;2022-09-09T04:38:17;14.23;;;12.87;;
9972;SDS011;5027;53.560;10.062;2022-09-09T04:40:48;13.67;;;12.47;;
9972;SDS011;5027;53.560;10.062;2022-09-09T04:43:17;14.37;;;13.07;;
9972;SDS011;5027;53.560;10.062;2022-09-09T04:45:49;13.73;;;12.63;;
9972;SDS011;5027;53.560;10.062;2022-09-09T04:48:20;14.00;;;12.50;;
9972;SDS011;5027;53.560;10.062;2022-09-09T04:50:54;13.13;;;11.93;;
9972;SDS011;5027;53.560;10.062;2022-09-09T04:53:23;13.93;;;12.50;;
9972;SDS011;5027;53.560;10.062;2022-09-09T04:55:50;13.37;;;12.17;;
9972;SDS011;5027;53.560;10.062;2022-09-09T04:58:17;13.83;;;12.63;;
9972;SDS011;5027;53.560;10.062;2022-09-09T05:00:44;14.43;;;13.10;;
9972;SDS011;5027;53.560;10.062;2022-09-09T05:03:11;13.63;;;12.53;;
9972;SDS011;5027;53.560;10.062;2022-09-09T05:05:39;13.90;;;12.50;;
9972;SDS011;5027;53.560;10.062;2022-09-09T05:08:07;13.87;;;12.50;;
9972;SDS011;5027;53.560;10.062;2022-09-09T05:10:36;13.47;;;12.07;;
9972;SDS011;5027;53.560;10.062;2022-09-09T05:13:04;12.60;;;11.60;;
9972;SDS011;5027;53.560;10.062;2022-09-09T05:15:33;12.80;;;11.67;;
9972;SDS011;5027;53.560;10.062;2022-09-09T05:18:01;14.03;;;12.73;;
9972;SDS011;5027;53.560;10.062;2022-09-09T05:20:30;13.00;;;11.80;;
9972;SDS011;5027;53.560;10.062;2022-09-09T05:22:58;12.03;;;10.83;;
9972;SDS011;5027;53.560;10.062;2022-09-09T05:25:27;13.00;;;11.80;;
9972;SDS011;5027;53.560;10.062;2022-09-09T05:27:55;13.80;;;12.40;;
9972;SDS011;5027;53.560;10.062;2022-09-09T05:30:22;12.70;;;11.40;;
9972;SDS011;5027;53.560;10.062;2022-09-09T05:32:50;12.63;;;11.43;;
9972;SDS011;5027;53.560;10.062;2022-09-09T05:35:21;12.20;;;11.10;;
9972;SDS011;5027;53.560;10.062;2022-09-09T05:37:49;11.60;;;10.50;;
9972;SDS011;5027;53.560;10.062;2022-09-09T05:40:15;13.50;;;10.77;;
9972;SDS011;5027;53.560;10.062;2022-09-09T05:42:42;11.40;;;10.40;;
9972;SDS011;5027;53.560;10.062;2022-09-09T05:45:09;11.87;;;10.67;;
9972;SDS011;5027;53.560;10.062;2022-09-09T05:47:37;12.37;;;11.00;;
9972;SDS011;5027;53.560;10.062;2022-09-09T05:50:07;12.80;;;11.50;;
9972;SDS011;5027;53.560;10.062;2022-09-09T05:52:34;11.60;;;10.60;;
9972;SDS011;5027;53.560;10.062;2022-09-09T05:55:04;11.73;;;10.33;;
9972;SDS011;5027;53.560;10.062;2022-09-09T05:57:31;12.17;;;10.57;;
9972;SDS011;5027;53.560;10.062;2022-09-09T05:59:58;10.60;;;9.60;;
9972;SDS011;5027;53.560;10.062;2022-09-09T06:02:25;9.70;;;8.90;;
9972;SDS011;5027;53.560;10.062;2022-09-09T06:04:52;9.90;;;9.10;;
9972;SDS011;5027;53.560;10.062;2022-09-09T06:07:25;9.60;;;8.67;;
9972;SDS011;5027;53.560;10.062;2022-09-09T06:09:51;9.73;;;8.87;;
9972;SDS011;5027;53.560;10.062;2022-09-09T06:12:19;9.57;;;8.67;;
9972;SDS011;5027;53.560;10.062;2022-09-09T06:14:46;8.47;;;7.67;;
9972;SDS011;5027;53.560;10.062;2022-09-09T06:17:14;12.10;;;9.10;;
9972;SDS011;5027;53.560;10.062;2022-09-09T06:19:40;8.70;;;7.90;;
9972;SDS011;5027;53.560;10.062;2022-09-09T06:22:07;9.20;;;8.37;;
9972;SDS011;5027;53.560;10.062;2022-09-09T06:24:36;8.30;;;7.50;;
9972;SDS011;5027;53.560;10.062;2022-09-09T06:27:02;8.73;;;7.10;;
9972;SDS011;5027;53.560;10.062;2022-09-09T06:29:33;10.70;;;7.20;;
9972;SDS011;5027;53.560;10.062;2022-09-09T06:32:00;8.67;;;7.70;;
9972;SDS011;5027;53.560;10.062;2022-09-09T06:34:29;7.87;;;7.07;;
9972;SDS011;5027;53.560;10.062;2022-09-09T06:36:57;11.70;;;7.70;;
9972;SDS011;5027;53.560;10.062;2022-09-09T06:39:28;7.60;;;6.90;;
9972;SDS011;5027;53.560;10.062;2022-09-09T06:41:55;7.17;;;6.47;;
9972;SDS011;5027;53.560;10.062;2022-09-09T06:44:40;7.57;;;6.60;;
9972;SDS011;5027;53.560;10.062;2022-09-09T06:47:12;7.00;;;6.10;;
9972;SDS011;5027;53.560;10.062;2022-09-09T06:49:40;7.03;;;6.23;;
9972;SDS011;5027;53.560;10.062;2022-09-09T06:52:13;7.83;;;6.90;;
9972;SDS011;5027;53.560;10.062;2022-09-09T06:54:40;8.43;;;7.53;;
9972;SDS011;5027;53.560;10.062;2022-09-09T06:57:06;7.23;;;6.00;;
9972;SDS011;5027;53.560;10.062;2022-09-09T06:59:54;9.63;;;7.73;;
9972;SDS011;5027;53.560;10.062;2022-09-09T07:02:21;7.53;;;6.83;;
9972;SDS011;5027;53.560;10.062;2022-09-09T07:04:48;10.23;;;6.40;;
9972;SDS011;5027;53.560;10.062;2022-09-09T07:07:17;5.63;;;4.97;;
9972;SDS011;5027;53.560;10.062;2022-09-09T07:09:43;8.13;;;6.67;;
9972;SDS011;5027;53.560;10.062;2022-09-09T07:12:12;5.70;;;5.10;;
9972;SDS011;5027;53.560;10.062;2022-09-09T07:14:45;8.80;;;7.50;;
9972;SDS011;5027;53.560;10.062;2022-09-09T07:17:12;7.07;;;5.03;;
9972;SDS011;5027;53.560;10.062;2022-09-09T07:19:39;5.63;;;5.10;;
9972;SDS011;5027;53.560;10.062;2022-09-09T07:22:05;7.60;;;4.67;;
9972;SDS011;5027;53.560;10.062;2022-09-09T07:24:33;7.13;;;5.73;;
9972;SDS011;5027;53.560;10.062;2022-09-09T07:27:00;5.73;;;5.13;;
9972;SDS011;5027;53.560;10.062;2022-09-09T07:29:27;6.87;;;4.40;;
9972;SDS011;5027;53.560;10.062;2022-09-09T07:31:55;8.50;;;4.80;;
9972;SDS011;5027;53.560;10.062;2022-09-09T07:34:28;7.97;;;4.47;;
9972;SDS011;5027;53.560;10.062;2022-09-09T07:36:56;5.03;;;4.53;;
9972;SDS011;5027;53.560;10.062;2022-09-09T07:39:23;9.47;;;5.47;;
9972;SDS011;5027;53.560;10.062;2022-09-09T07:41:52;6.97;;;4.83;;
9972;SDS011;5027;53.560;10.062;2022-09-09T07:44:22;5.67;;;4.60;;
9972;SDS011;5027;53.560;10.062;2022-09-09T07:47:06;6.57;;;4.83;;
9972;SDS011;5027;53.560;10.062;2022-09-09T07:49:37;5.50;;;4.37;;
9972;SDS011;5027;53.560;10.062;2022-09-09T07:52:06;6.17;;;4.60;;
9972;SDS011;5027;53.560;10.062;2022-09-09T07:54:40;5.97;;;4.73;;
9972;SDS011;5027;53.560;10.062;2022-09-09T07:57:09;7.50;;;4.93;;
9972;SDS011;5027;53.560;10.062;2022-09-09T07:59:36;4.47;;;4.07;;
9972;SDS011;5027;53.560;10.062;2022-09-09T08:02:03;4.77;;;4.30;;
9972;SDS011;5027;53.560;10.062;2022-09-09T08:04:33;5.53;;;4.37;;
9972;SDS011;5027;53.560;10.062;2022-09-09T08:07:01;7.60;;;4.87;;
9972;SDS011;5027;53.560;10.062;2022-09-09T08:09:33;6.67;;;4.70;;
9972;SDS011;5027;53.560;10.062;2022-09-09T08:12:06;6.23;;;4.60;;
9972;SDS011;5027;53.560;10.062;2022-09-09T08:14:34;6.00;;;4.70;;
9972;SDS011;5027;53.560;10.062;2022-09-09T08:17:01;4.97;;;4.20;;
9972;SDS011;5027;53.560;10.062;2022-09-09T08:19:30;6.27;;;4.97;;
9972;SDS011;5027;53.560;10.062;2022-09-09T08:22:00;6.63;;;4.73;;
9972;SDS011;5027;53.560;10.062;2022-09-09T08:24:28;5.87;;;4.70;;
9972;SDS011;5027;53.560;10.062;2022-09-09T08:26:55;5.87;;;5.13;;
9972;SDS011;5027;53.560;10.062;2022-09-09T08:29:23;5.50;;;4.90;;
9972;SDS011;5027;53.560;10.062;2022-09-09T08:31:52;5.77;;;4.70;;
9972;SDS011;5027;53.560;10.062;2022-09-09T08:34:21;5.00;;;4.27;;
9972;SDS011;5027;53.560;10.062;2022-09-09T08:36:50;6.70;;;4.90;;
9972;SDS011;5027;53.560;10.062;2022-09-09T08:39:21;9.30;;;5.10;;
9972;SDS011;5027;53.560;10.062;2022-09-09T08:41:58;7.37;;;4.60;;
9972;SDS011;5027;53.560;10.062;2022-09-09T08:53:10;6.97;;;4.03;;
9972;SDS011;5027;53.560;10.062;2022-09-09T08:55:51;6.60;;;4.30;;
9972;SDS011;5027;53.560;10.062;2022-09-09T08:58:48;7.20;;;4.67;;
9972;SDS011;5027;53.560;10.062;2022-09-09T09:03:55;4.77;;;3.87;;
9972;SDS011;5027;53.560;10.062;2022-09-09T09:09:01;5.00;;;4.00;;
9972;SDS011;5027;53.560;10.062;2022-09-09T09:11:34;6.67;;;4.40;;
9972;SDS011;5027;53.560;10.062;2022-09-09T09:14:09;6.80;;;4.53;;
9972;SDS011;5027;53.560;10.062;2022-09-09T09:17:00;4.63;;;4.07;;
9972;SDS011;5027;53.560;10.062;2022-09-09T09:19:30;4.77;;;3.63;;
9972;SDS011;5027;53.560;10.062;2022-09-09T09:22:05;5.97;;;3.30;;
9972;SDS011;5027;53.560;10.062;2022-09-09T09:24:52;4.90;;;3.70;;
9972;SDS011;5027;53.560;10.062;2022-09-09T09:30:35;5.90;;;4.23;;
9972;SDS011;5027;53.560;10.062;2022-09-09T09:33:12;7.03;;;3.80;;
9972;SDS011;5027;53.560;10.062;2022-09-09T09:35:49;4.47;;;4.00;;
9972;SDS011;5027;53.560;10.062;2022-09-09T09:38:19;5.77;;;3.60;;
9972;SDS011;5027;53.560;10.062;2022-09-09T09:41:10;5.57;;;3.60;;
9972;SDS011;5027;53.560;10.062;2022-09-09T09:43:39;4.17;;;3.57;;
9972;SDS011;5027;53.560;10.062;2022-09-09T09:46:20;4.10;;;3.70;;
9972;SDS011;5027;53.560;10.062;2022-09-09T09:49:24;5.60;;;3.40;;
9972;SDS011;5027;53.560;10.062;2022-09-09T09:51:43;8.27;;;3.83;;
9972;SDS011;5027;53.560;10.062;2022-09-09T09:54:14;6.30;;;3.77;;
9972;SDS011;5027;53.560;10.062;2022-09-09T09:56:52;4.60;;;3.37;;
9972;SDS011;5027;53.560;10.062;2022-09-09T10:02:24;4.97;;;3.13;;
9972;SDS011;5027;53.560;10.062;2022-09-09T10:05:01;4.60;;;3.07;;
9972;SDS011;5027;53.560;10.062;2022-09-09T10:07:32;4.13;;;3.10;;
9972;SDS011;5027;53.560;10.062;2022-09-09T10:09:59;5.70;;;3.03;;
9972;SDS011;5027;53.560;10.062;2022-09-09T10:21:27;6.10;;;2.50;;
9972;SDS011;5027;53.560;10.062;2022-09-09T10:24:28;4.57;;;2.67;;
9972;SDS011;5027;53.560;10.062;2022-09-09T10:38:16;3.73;;;2.37;;
9972;SDS011;5027;53.560;10.062;2022-09-09T10:46:01;6.30;;;2.23;;
9972;SDS011;5027;53.560;10.062;2022-09-09T10:48:45;4.70;;;2.20;;
9972;SDS011;5027;53.560;10.062;2022-09-09T10:52:00;4.40;;;2.20;;
9972;SDS011;5027;53.560;10.062;2022-09-09T10:54:19;2.97;;;2.40;;
9972;SDS011;5027;53.560;10.062;2022-09-09T10:56:49;5.17;;;2.47;;
9972;SDS011;5027;53.560;10.062;2022-09-09T10:59:26;6.43;;;2.30;;
9972;SDS011;5027;53.560;10.062;2022-09-09T11:01:59;3.83;;;2.20;;
9972;SDS011;5027;53.560;10.062;2022-09-09T11:04:45;3.90;;;2.40;;
9972;SDS011;5027;53.560;10.062;2022-09-09T11:13:17;3.33;;;2.33;;
9972;SDS011;5027;53.560;10.062;2022-09-09T11:15:49;4.37;;;2.70;;
9972;SDS011;5027;53.560;10.062;2022-09-09T11:18:21;2.53;;;2.00;;
9972;SDS011;5027;53.560;10.062;2022-09-09T11:20:51;3.53;;;2.30;;
9972;SDS011;5027;53.560;10.062;2022-09-09T11:23:25;3.47;;;2.27;;
9972;SDS011;5027;53.560;10.062;2022-09-09T11:25:57;3.77;;;2.00;;
9972;SDS011;5027;53.560;10.062;2022-09-09T11:28:32;2.60;;;1.93;;
9972;SDS011;5027;53.560;10.062;2022-09-09T11:31:08;3.73;;;2.40;;
9972;SDS011;5027;53.560;10.062;2022-09-09T11:42:17;4.57;;;2.17;;
9972;SDS011;5027;53.560;10.062;2022-09-09T11:44:46;4.13;;;2.40;;
9972;SDS011;5027;53.560;10.062;2022-09-09T11:47:24;3.90;;;2.20;;
9972;SDS011;5027;53.560;10.062;2022-09-09T11:50:26;3.23;;;2.60;;
9972;SDS011;5027;53.560;10.062;2022-09-09T11:56:12;5.17;;;2.83;;
9972;SDS011;5027;53.560;10.062;2022-09-09T11:58:43;6.80;;;3.73;;
9972;SDS011;5027;53.560;10.062;2022-09-09T12:01:29;9.20;;;6.17;;
9972;SDS011;5027;53.560;10.062;2022-09-09T12:04:09;5.47;;;2.73;;
9972;SDS011;5027;53.560;10.062;2022-09-09T12:06:51;5.37;;;2.60;;
9972;SDS011;5027;53.560;10.062;2022-09-09T12:09:22;7.30;;;3.50;;
9972;SDS011;5027;53.560;10.062;2022-09-09T12:12:07;2.90;;;2.13;;
9972;SDS011;5027;53.560;10.062;2022-09-09T12:14:38;11.63;;;9.57;;
9972;SDS011;5027;53.560;10.062;2022-09-09T12:17:19;6.37;;;2.67;;
9972;SDS011;5027;53.560;10.062;2022-09-09T12:19:48;8.80;;;5.07;;
9972;SDS011;5027;53.560;10.062;2022-09-09T12:25:26;15.33;;;13.03;;
9972;SDS011;5027;53.560;10.062;2022-09-09T12:28:18;7.70;;;4.30;;
9972;SDS011;5027;53.560;10.062;2022-09-09T12:33:51;4.57;;;2.50;;
9972;SDS011;5027;53.560;10.062;2022-09-09T12:36:19;3.47;;;2.20;;
9972;SDS011;5027;53.560;10.062;2022-09-09T12:38:54;6.90;;;2.40;;
9972;SDS011;5027;53.560;10.062;2022-09-09T12:41:26;3.53;;;2.40;;
9972;SDS011;5027;53.560;10.062;2022-09-09T12:44:05;3.10;;;2.20;;
9972;SDS011;5027;53.560;10.062;2022-09-09T12:46:36;5.13;;;2.80;;
9972;SDS011;5027;53.560;10.062;2022-09-09T12:49:24;4.10;;;2.30;;
9972;SDS011;5027;53.560;10.062;2022-09-09T12:52:01;3.33;;;2.20;;
9972;SDS011;5027;53.560;10.062;2022-09-09T12:54:33;5.30;;;2.70;;
9972;SDS011;5027;53.560;10.062;2022-09-09T12:57:02;6.27;;;2.30;;
9972;SDS011;5027;53.560;10.062;2022-09-09T12:59:38;5.93;;;3.00;;
9972;SDS011;5027;53.560;10.062;2022-09-09T13:02:21;5.73;;;3.03;;
9972;SDS011;5027;53.560;10.062;2022-09-09T13:04:49;3.60;;;2.70;;
9972;SDS011;5027;53.560;10.062;2022-09-09T13:07:17;6.90;;;2.30;;
9972;SDS011;5027;53.560;10.062;2022-09-09T13:09:45;6.77;;;2.70;;
9972;SDS011;5027;53.560;10.062;2022-09-09T13:12:14;4.23;;;2.17;;
9972;SDS011;5027;53.560;10.062;2022-09-09T13:14:44;4.93;;;3.33;;
9972;SDS011;5027;53.560;10.062;2022-09-09T13:17:15;5.00;;;3.33;;
9972;SDS011;5027;53.560;10.062;2022-09-09T13:19:46;5.03;;;2.63;;
9972;SDS011;5027;53.560;10.062;2022-09-09T13:22:14;4.07;;;2.40;;
9972;SDS011;5027;53.560;10.062;2022-09-09T13:24:46;7.17;;;2.67;;
9972;SDS011;5027;53.560;10.062;2022-09-09T13:29:52;6.83;;;4.97;;
9972;SDS011;5027;53.560;10.062;2022-09-09T13:32:22;3.63;;;2.50;;
9972;SDS011;5027;53.560;10.062;2022-09-09T13:34:56;6.37;;;2.63;;
9972;SDS011;5027;53.560;10.062;2022-09-09T13:37:35;4.90;;;2.60;;
9972;SDS011;5027;53.560;10.062;2022-09-09T13:40:04;6.20;;;3.00;;
9972;SDS011;5027;53.560;10.062;2022-09-09T13:42:33;4.80;;;2.87;;
9972;SDS011;5027;53.560;10.062;2022-09-09T13:45:04;5.73;;;3.97;;
9972;SDS011;5027;53.560;10.062;2022-09-09T13:47:34;4.33;;;2.87;;
9972;SDS011;5027;53.560;10.062;2022-09-09T13:50:21;8.53;;;3.77;;
9972;SDS011;5027;53.560;10.062;2022-09-09T13:52:58;5.83;;;3.30;;
9972;SDS011;5027;53.560;10.062;2022-09-09T13:55:28;6.23;;;3.40;;
9972;SDS011;5027;53.560;10.062;2022-09-09T13:57:56;8.90;;;4.43;;
9972;SDS011;5027;53.560;10.062;2022-09-09T14:00:30;10.43;;;3.80;;
9972;SDS011;5027;53.560;10.062;2022-09-09T14:02:58;4.90;;;3.80;;
9972;SDS011;5027;53.560;10.062;2022-09-09T14:05:30;5.93;;;3.23;;
9972;SDS011;5027;53.560;10.062;2022-09-09T14:07:58;5.73;;;3.00;;
9972;SDS011;5027;53.560;10.062;2022-09-09T14:10:26;5.63;;;3.30;;
9972;SDS011;5027;53.560;10.062;2022-09-09T14:12:53;4.77;;;3.43;;
9972;SDS011;5027;53.560;10.062;2022-09-09T14:15:20;6.10;;;3.50;;
9972;SDS011;5027;53.560;10.062;2022-09-09T14:17:47;8.97;;;3.70;;
9972;SDS011;5027;53.560;10.062;2022-09-09T14:20:14;6.80;;;3.37;;
9972;SDS011;5027;53.560;10.062;2022-09-09T14:22:43;5.70;;;3.60;;
9972;SDS011;5027;53.560;10.062;2022-09-09T14:25:10;11.50;;;8.60;;
9972;SDS011;5027;53.560;10.062;2022-09-09T14:27:39;5.73;;;3.73;;
9972;SDS011;5027;53.560;10.062;2022-09-09T14:30:06;6.30;;;3.37;;
9972;SDS011;5027;53.560;10.062;2022-09-09T14:32:33;5.53;;;2.97;;
9972;SDS011;5027;53.560;10.062;2022-09-09T14:35:00;5.93;;;2.50;;
9972;SDS011;5027;53.560;10.062;2022-09-09T14:37:27;5.47;;;3.00;;
9972;SDS011;5027;53.560;10.062;2022-09-09T14:39:54;4.10;;;2.20;;
9972;SDS011;5027;53.560;10.062;2022-09-09T14:42:22;7.57;;;2.50;;
9972;SDS011;5027;53.560;10.062;2022-09-09T14:44:49;7.97;;;4.97;;
9972;SDS011;5027;53.560;10.062;2022-09-09T14:47:16;5.03;;;2.87;;
9972;SDS011;5027;53.560;10.062;2022-09-09T14:49:42;7.23;;;3.50;;
9972;SDS011;5027;53.560;10.062;2022-09-09T14:52:12;4.60;;;2.57;;
9972;SDS011;5027;53.560;10.062;2022-09-09T14:54:39;5.90;;;2.40;;
9972;SDS011;5027;53.560;10.062;2022-09-09T14:57:06;7.90;;;3.30;;
9972;SDS011;5027;53.560;10.062;2022-09-09T14:59:32;5.70;;;3.93;;
9972;SDS011;5027;53.560;10.062;2022-09-09T15:02:00;5.80;;;3.20;;
9972;SDS011;5027;53.560;10.062;2022-09-09T15:04:30;8.87;;;4.23;;
9972;SDS011;5027;53.560;10.062;2022-09-09T15:06:56;5.37;;;3.23;;
9972;SDS011;5027;53.560;10.062;2022-09-09T15:09:24;6.67;;;3.53;;
9972;SDS011;5027;53.560;10.062;2022-09-09T15:11:51;5.80;;;3.50;;
9972;SDS011;5027;53.560;10.062;2022-09-09T15:14:19;5.47;;;3.10;;
9972;SDS011;5027;53.560;10.062;2022-09-09T15:16:50;3.13;;;2.70;;
9972;SDS011;5027;53.560;10.062;2022-09-09T15:19:17;4.43;;;2.83;;
9972;SDS011;5027;53.560;10.062;2022-09-09T15:21:44;4.27;;;2.87;;
9972;SDS011;5027;53.560;10.062;2022-09-09T15:24:10;5.23;;;3.30;;
9972;SDS011;5027;53.560;10.062;2022-09-09T15:26:39;5.10;;;3.10;;
9972;SDS011;5027;53.560;10.062;2022-09-09T15:29:05;2.87;;;2.50;;
9972;SDS011;5027;53.560;10.062;2022-09-09T15:31:34;4.30;;;2.63;;
9972;SDS011;5027;53.560;10.062;2022-09-09T15:34:05;4.50;;;3.47;;
9972;SDS011;5027;53.560;10.062;2022-09-09T15:36:34;7.53;;;4.00;;
9972;SDS011;5027;53.560;10.062;2022-09-09T15:39:03;4.23;;;2.90;;
9972;SDS011;5027;53.560;10.062;2022-09-09T15:41:32;4.00;;;3.43;;
9972;SDS011;5027;53.560;10.062;2022-09-09T15:43:59;3.60;;;3.30;;
9972;SDS011;5027;53.560;10.062;2022-09-09T15:46:28;4.53;;;2.90;;
9972;SDS011;5027;53.560;10.062;2022-09-09T15:49:02;3.87;;;2.97;;
9972;SDS011;5027;53.560;10.062;2022-09-09T15:51:31;4.70;;;2.87;;
9972;SDS011;5027;53.560;10.062;2022-09-09T15:54:15;4.87;;;2.80;;
9972;SDS011;5027;53.560;10.062;2022-09-09T15:56:46;3.57;;;2.63;;
9972;SDS011;5027;53.560;10.062;2022-09-09T15:59:16;6.27;;;2.80;;
9972;SDS011;5027;53.560;10.062;2022-09-09T16:01:42;4.80;;;2.43;;
9972;SDS011;5027;53.560;10.062;2022-09-09T16:04:10;3.40;;;2.47;;
9972;SDS011;5027;53.560;10.062;2022-09-09T16:06:37;2.70;;;2.17;;
9972;SDS011;5027;53.560;10.062;2022-09-09T16:09:04;4.87;;;2.53;;
9972;SDS011;5027;53.560;10.062;2022-09-09T16:11:36;4.43;;;2.70;;
9972;SDS011;5027;53.560;10.062;2022-09-09T16:14:04;5.80;;;2.90;;
9972;SDS011;5027;53.560;10.062;2022-09-09T16:16:32;3.87;;;2.70;;
9972;SDS011;5027;53.560;10.062;2022-09-09T16:19:08;4.27;;;3.43;;
9972;SDS011;5027;53.560;10.062;2022-09-09T16:21:44;3.70;;;2.80;;
9972;SDS011;5027;53.560;10.062;2022-09-09T16:24:13;6.80;;;2.70;;
9972;SDS011;5027;53.560;10.062;2022-09-09T16:26:43;3.23;;;2.37;;
9972;SDS011;5027;53.560;10.062;2022-09-09T16:29:12;4.57;;;2.63;;
9972;SDS011;5027;53.560;10.062;2022-09-09T16:31:40;3.07;;;2.17;;
9972;SDS011;5027;53.560;10.062;2022-09-09T16:34:08;4.10;;;2.30;;
9972;SDS011;5027;53.560;10.062;2022-09-09T16:36:36;5.83;;;2.43;;
9972;SDS011;5027;53.560;10.062;2022-09-09T16:39:06;6.37;;;2.70;;
9972;SDS011;5027;53.560;10.062;2022-09-09T16:41:35;5.00;;;2.67;;
9972;SDS011;5027;53.560;10.062;2022-09-09T16:44:03;6.93;;;2.50;;
9972;SDS011;5027;53.560;10.062;2022-09-09T16:46:33;3.13;;;2.10;;
9972;SDS011;5027;53.560;10.062;2022-09-09T16:49:02;2.20;;;1.93;;
9972;SDS011;5027;53.560;10.062;2022-09-09T16:51:32;3.70;;;2.50;;
9972;SDS011;5027;53.560;10.062;2022-09-09T16:54:04;4.27;;;2.50;;
9972;SDS011;5027;53.560;10.062;2022-09-09T16:56:34;4.73;;;2.40;;
9972;SDS011;5027;53.560;10.062;2022-09-09T16:59:08;4.37;;;2.40;;
9972;SDS011;5027;53.560;10.062;2022-09-09T17:01:41;3.17;;;1.87;;
9972;SDS011;5027;53.560;10.062;2022-09-09T17:04:10;3.60;;;2.43;;
9972;SDS011;5027;53.560;10.062;2022-09-09T17:06:46;6.67;;;2.93;;
9972;SDS011;5027;53.560;10.062;2022-09-09T17:09:17;3.70;;;2.47;;
9972;SDS011;5027;53.560;10.062;2022-09-09T17:11:45;4.07;;;2.43;;